createdAt,value
2022-08-20T00:00:57.765Z,2.80
2022-08-20T00:07:08.509Z,2.72
2022-08-20T00:10:10.393Z,2.83
2022-08-20T00:13:15.483Z,3.25
2022-08-20T00:16:22.962Z,3.60
2022-08-20T00:19:24.642Z,4.25
2022-08-20T00:22:28.793Z,2.70
2022-08-20T00:25:30.739Z,3.78
2022-08-20T00:28:32.659Z,3.00
2022-08-20T00:31:35.565Z,3.22
2022-08-20T00:34:39.792Z,3.63
2022-08-20T00:37:42.132Z,3.95
2022-08-20T00:40:53.964Z,3.40
2022-08-20T00:44:04.586Z,5.70
2022-08-20T00:47:06.417Z,3.00
2022-08-20T00:50:08.764Z,3.10
2022-08-20T00:53:10.459Z,2.80
2022-08-20T00:56:12.946Z,2.90
2022-08-20T00:59:18.907Z,3.15
2022-08-20T01:02:23.342Z,2.90
2022-08-20T01:05:27.869Z,3.50
2022-08-20T01:08:31.852Z,3.55
2022-08-20T01:11:37.051Z,3.78
2022-08-20T01:14:47.613Z,3.03
2022-08-20T01:17:53.318Z,3.65
2022-08-20T01:20:59.607Z,3.67
2022-08-20T01:24:06.817Z,2.90
2022-08-20T01:27:09.220Z,3.17
2022-08-20T01:30:11.704Z,4.55
2022-08-20T01:33:13.576Z,3.20
2022-08-20T01:36:18.810Z,3.90
2022-08-20T01:39:26.603Z,3.33
2022-08-20T01:42:37.773Z,3.67
2022-08-20T01:45:59.261Z,3.03
2022-08-20T01:49:11.853Z,3.83
2022-08-20T01:52:24.598Z,3.60
2022-08-20T01:55:29.524Z,3.08
2022-08-20T01:58:33.611Z,2.92
2022-08-20T02:01:46.244Z,3.72
2022-08-20T02:04:48.616Z,3.20
2022-08-20T02:07:50.515Z,3.70
2022-08-20T02:10:52.528Z,3.00
2022-08-20T02:13:54.684Z,3.22
2022-08-20T02:16:58.582Z,3.58
2022-08-20T02:20:13.362Z,3.28
2022-08-20T02:23:16.267Z,3.70
2022-08-20T02:26:19.235Z,3.33
2022-08-20T02:29:20.929Z,3.65
2022-08-20T02:32:24.162Z,3.80
2022-08-20T02:35:36.041Z,3.20
2022-08-20T02:38:38.953Z,3.47
2022-08-20T02:41:41.498Z,4.22
2022-08-20T02:44:43.566Z,3.70
2022-08-20T02:47:46.471Z,4.88
2022-08-20T02:50:55.308Z,3.65
2022-08-20T02:53:57.084Z,3.35
2022-08-20T02:56:58.700Z,3.60
2022-08-20T03:00:02.107Z,4.00
2022-08-20T03:03:04.080Z,4.28
2022-08-20T03:06:08.016Z,4.13
2022-08-20T03:09:09.681Z,4.35
2022-08-20T03:12:11.383Z,4.07
2022-08-20T03:15:17.582Z,3.70
2022-08-20T03:18:20.667Z,4.00
2022-08-20T03:21:22.289Z,3.53
2022-08-20T03:24:23.901Z,3.80
2022-08-20T03:27:25.657Z,3.63
2022-08-20T03:30:32.598Z,3.90
2022-08-20T03:33:34.911Z,4.72
2022-08-20T03:36:36.572Z,4.88
2022-08-20T03:39:39.199Z,4.45
2022-08-20T03:42:41.254Z,4.63
2022-08-20T03:45:44.762Z,5.47
2022-08-20T03:48:46.405Z,5.22
2022-08-20T03:51:57.686Z,4.35
2022-08-20T03:55:00.012Z,4.28
2022-08-20T03:58:06.272Z,3.95
2022-08-20T04:01:32.053Z,3.95
2022-08-20T04:04:29.556Z,4.80
2022-08-20T04:07:31.174Z,3.78
2022-08-20T04:10:32.827Z,4.65
2022-08-20T04:13:34.829Z,4.18
2022-08-20T04:16:41.827Z,4.05
2022-08-20T04:19:44.447Z,3.95
2022-08-20T04:22:50.861Z,5.15
2022-08-20T04:26:01.496Z,4.40
2022-08-20T04:29:03.771Z,3.80
2022-08-20T04:32:06.226Z,4.70
2022-08-20T04:35:11.759Z,4.35
2022-08-20T04:38:17.347Z,4.63
2022-08-20T04:41:23.658Z,4.10
2022-08-20T04:44:25.694Z,5.13
2022-08-20T04:47:34.614Z,6.25
2022-08-20T04:50:39.229Z,6.63
2022-08-20T04:53:41.913Z,6.05
2022-08-20T04:56:43.628Z,6.30
2022-08-20T04:59:45.307Z,8.93
2022-08-20T05:02:46.888Z,5.68
2022-08-20T05:05:49.069Z,5.72
2022-08-20T05:08:50.744Z,5.85
2022-08-20T05:11:52.404Z,6.20
2022-08-20T05:14:54.279Z,6.68
2022-08-20T05:18:02.505Z,5.97
2022-08-20T05:21:05.990Z,7.47
2022-08-20T05:24:08.263Z,7.05
2022-08-20T05:27:10.215Z,5.43
2022-08-20T05:30:33.492Z,6.45
2022-08-20T05:33:37.954Z,5.30
2022-08-20T05:36:41.840Z,5.88
2022-08-20T05:39:44.406Z,5.15
2022-08-20T05:42:46.010Z,5.38
2022-08-20T05:45:56.538Z,7.20
2022-08-20T05:49:00.032Z,5.07
2022-08-20T05:52:01.986Z,6.75
2022-08-20T05:55:05.923Z,5.95
2022-08-20T05:58:14.791Z,7.05
2022-08-20T06:01:16.564Z,5.75
2022-08-20T06:04:32.086Z,7.63
2022-08-20T06:07:33.765Z,6.15
2022-08-20T06:10:36.899Z,6.75
2022-08-20T06:13:39.138Z,7.15
2022-08-20T06:16:57.364Z,7.93
2022-08-20T06:20:02.962Z,7.38
2022-08-20T06:23:05.871Z,7.85
2022-08-20T06:26:09.259Z,8.85
2022-08-20T06:29:11.360Z,7.85
2022-08-20T06:32:13.263Z,8.10
2022-08-20T06:35:19.444Z,9.25
2022-08-20T06:38:21.696Z,7.97
2022-08-20T06:41:23.373Z,8.45
2022-08-20T06:44:38.069Z,8.05
2022-08-20T06:47:44.894Z,7.38
2022-08-20T06:50:47.523Z,7.07
2022-08-20T06:53:49.734Z,9.05
2022-08-20T06:56:54.138Z,7.63
2022-08-20T06:59:55.814Z,9.38
2022-08-20T07:03:00.485Z,10.23
2022-08-20T07:06:02.172Z,7.85
2022-08-20T07:09:03.931Z,11.45
2022-08-20T07:12:06.404Z,10.32
2022-08-20T07:15:10.989Z,11.88
2022-08-20T07:18:13.997Z,12.65
2022-08-20T07:21:17.456Z,15.07
2022-08-20T07:24:19.271Z,14.43
2022-08-20T07:27:23.048Z,12.10
2022-08-20T07:30:56.895Z,16.33
2022-08-20T07:33:59.877Z,15.25
2022-08-20T07:37:04.061Z,15.38
2022-08-20T07:40:07.288Z,14.77
2022-08-20T07:43:10.700Z,14.27
2022-08-20T07:46:17.994Z,18.10
2022-08-20T07:49:22.581Z,16.55
2022-08-20T07:52:24.138Z,15.05
2022-08-20T07:55:26.241Z,13.82
2022-08-20T07:58:33.186Z,13.88
2022-08-20T08:01:35.242Z,17.08
2022-08-20T08:04:37.146Z,13.90
2022-08-20T08:07:39.429Z,14.27
2022-08-20T08:10:47.532Z,15.90
2022-08-20T08:14:05.319Z,13.35
2022-08-20T08:17:08.023Z,12.32
2022-08-20T08:20:12.295Z,14.70
2022-08-20T08:23:24.676Z,14.98
2022-08-20T08:26:33.294Z,13.60
2022-08-20T08:29:36.201Z,13.68
2022-08-20T08:32:58.458Z,14.05
2022-08-20T08:36:12.915Z,14.52
2022-08-20T08:39:14.572Z,12.68
2022-08-20T08:42:27.069Z,13.85
2022-08-20T08:45:38.074Z,14.50
2022-08-20T08:48:47.158Z,15.30
2022-08-20T08:51:51.526Z,13.10
2022-08-20T08:54:56.900Z,14.02
2022-08-20T08:58:16.529Z,11.97
2022-08-20T09:01:53.729Z,12.63
2022-08-20T09:04:44.681Z,10.48
2022-08-20T09:07:51.209Z,12.52
2022-08-20T09:10:55.581Z,12.70
2022-08-20T09:13:58.596Z,11.35
2022-08-20T09:17:00.210Z,15.05
2022-08-20T09:20:02.141Z,11.68
2022-08-20T09:23:06.780Z,13.02
2022-08-20T09:26:09.059Z,13.90
2022-08-20T09:29:10.927Z,11.88
2022-08-20T09:32:21.048Z,14.23
2022-08-20T09:35:23.031Z,11.00
2022-08-20T09:38:24.681Z,11.07
2022-08-20T09:41:26.344Z,12.77
2022-08-20T09:44:27.964Z,12.43
2022-08-20T09:47:29.631Z,12.77
2022-08-20T09:50:33.863Z,12.32
2022-08-20T09:53:35.811Z,13.25
2022-08-20T09:56:37.472Z,10.77
2022-08-20T09:59:39.467Z,8.85
2022-08-20T10:02:41.771Z,9.88
2022-08-20T10:05:43.396Z,11.05
2022-08-20T10:08:45.867Z,10.98
2022-08-20T10:11:47.547Z,9.55
2022-08-20T10:14:49.206Z,9.60
2022-08-20T10:17:51.021Z,9.40
2022-08-20T10:20:52.778Z,9.48
2022-08-20T10:23:54.420Z,10.43
2022-08-20T10:26:58.701Z,8.70
2022-08-20T10:30:00.310Z,10.23
2022-08-20T10:33:02.156Z,8.80
2022-08-20T10:36:21.959Z,10.88
2022-08-20T10:39:23.655Z,10.25
2022-08-20T10:42:25.314Z,9.90
2022-08-20T10:45:26.941Z,10.40
2022-08-20T10:48:29.562Z,16.65
2022-08-20T10:51:32.660Z,23.08
2022-08-20T10:54:34.602Z,23.15
2022-08-20T10:57:39.395Z,15.13
2022-08-20T11:00:41.720Z,14.02
2022-08-20T11:03:43.303Z,11.45
2022-08-20T11:06:45.015Z,11.82
2022-08-20T11:09:48.803Z,12.38
2022-08-20T11:12:50.457Z,11.77
2022-08-20T11:15:52.093Z,10.93
2022-08-20T11:18:53.713Z,9.85
2022-08-20T11:21:56.266Z,9.18
2022-08-20T11:24:57.874Z,7.80
2022-08-20T11:27:59.587Z,7.57
2022-08-20T11:31:01.876Z,8.55
2022-08-20T11:34:03.543Z,8.55
2022-08-20T11:37:05.187Z,6.47
2022-08-20T11:40:12.331Z,6.72
2022-08-20T11:43:16.407Z,6.72
2022-08-20T11:46:18.810Z,5.88
2022-08-20T11:49:20.442Z,6.55
2022-08-20T11:52:22.060Z,6.55
2022-08-20T11:55:28.560Z,8.73
2022-08-20T11:58:33.787Z,8.10
2022-08-20T12:01:35.469Z,7.75
2022-08-20T12:04:37.045Z,8.15
2022-08-20T12:07:39.093Z,8.70
2022-08-20T12:10:40.740Z,8.77
2022-08-20T12:13:47.290Z,8.00
2022-08-20T12:16:49.315Z,9.90
2022-08-20T12:19:53.138Z,10.65
2022-08-20T12:22:54.744Z,10.73
2022-08-20T12:25:56.477Z,10.50
2022-08-20T12:29:00.947Z,9.43
2022-08-20T12:32:03.381Z,8.35
2022-08-20T12:35:07.307Z,7.53
2022-08-20T12:38:09.007Z,10.73
2022-08-20T12:41:11.862Z,8.00
2022-08-20T12:44:13.548Z,8.13
2022-08-20T12:47:27.419Z,8.75
2022-08-20T12:50:31.596Z,11.40
2022-08-20T12:53:33.509Z,9.10
2022-08-20T12:56:36.191Z,10.48
2022-08-20T12:59:37.781Z,10.80
2022-08-20T13:02:41.225Z,11.50
2022-08-20T13:05:43.074Z,9.02
2022-08-20T13:08:44.660Z,10.00
2022-08-20T13:11:46.389Z,9.70
2022-08-20T13:14:48.001Z,9.60
2022-08-20T13:17:57.470Z,9.18
2022-08-20T13:20:59.057Z,12.48
2022-08-20T13:24:00.716Z,10.10
2022-08-20T13:27:13.085Z,8.30
2022-08-20T13:30:20.126Z,8.63
2022-08-20T13:33:21.931Z,8.90
2022-08-20T13:36:23.611Z,8.88
2022-08-20T13:39:25.303Z,9.68
2022-08-20T13:42:28.071Z,6.93
2022-08-20T13:45:29.646Z,7.60
2022-08-20T13:48:31.255Z,6.50
2022-08-20T13:51:32.835Z,6.93
2022-08-20T13:54:34.644Z,9.45
2022-08-20T13:57:36.812Z,6.43
2022-08-20T14:00:38.479Z,6.07
2022-08-20T14:03:42.783Z,6.28
2022-08-20T14:06:44.467Z,6.47
2022-08-20T14:09:49.773Z,5.97
2022-08-20T14:12:51.748Z,8.27
2022-08-20T14:15:54.166Z,8.55
2022-08-20T14:18:56.443Z,6.18
2022-08-20T14:21:58.232Z,6.03
2022-08-20T14:25:03.482Z,5.93
2022-08-20T14:28:13.868Z,7.53
2022-08-20T14:31:15.516Z,5.40
2022-08-20T14:34:17.435Z,7.43
2022-08-20T14:37:22.715Z,6.32
2022-08-20T14:40:26.841Z,6.87
2022-08-20T14:43:28.520Z,7.47
2022-08-20T14:46:30.175Z,6.88
2022-08-20T14:49:33.081Z,8.20
2022-08-20T14:52:36.651Z,6.22
2022-08-20T14:55:38.741Z,7.10
2022-08-20T14:58:40.313Z,6.93
2022-08-20T15:01:42.122Z,8.10
2022-08-20T15:04:45.414Z,6.93
2022-08-20T15:07:54.374Z,7.68
2022-08-20T15:10:56.105Z,6.03
2022-08-20T15:13:57.788Z,5.82
2022-08-20T15:16:59.402Z,6.45
2022-08-20T15:20:11.568Z,6.65
2022-08-20T15:23:23.050Z,11.45
2022-08-20T15:26:24.745Z,7.00
2022-08-20T15:29:26.343Z,5.40
2022-08-20T15:32:28.031Z,7.28
2022-08-20T15:35:29.763Z,6.47
2022-08-20T15:38:32.985Z,7.07
2022-08-20T15:41:34.739Z,5.95
2022-08-20T15:44:37.749Z,7.78
2022-08-20T15:48:06.333Z,5.68
2022-08-20T15:51:07.901Z,6.93
2022-08-20T15:54:26.205Z,6.18
2022-08-20T15:57:55.403Z,5.70
2022-08-20T16:01:24.226Z,5.18
2022-08-20T16:04:41.771Z,8.23
2022-08-20T16:08:01.374Z,5.63
2022-08-20T16:11:21.707Z,7.47
2022-08-20T16:14:31.054Z,5.63
2022-08-20T16:18:24.284Z,6.25
2022-08-20T16:21:34.634Z,5.65
2022-08-20T16:24:36.320Z,4.88
2022-08-20T16:27:52.942Z,5.05
2022-08-20T16:31:06.375Z,5.30
2022-08-20T16:34:33.164Z,4.93
2022-08-20T16:38:23.395Z,4.22
2022-08-20T16:41:38.652Z,5.05
2022-08-20T16:44:44.837Z,5.22
2022-08-20T16:47:48.119Z,4.90
2022-08-20T16:50:58.937Z,5.63
2022-08-20T16:54:00.654Z,7.00
2022-08-20T16:57:05.522Z,4.00
2022-08-20T17:00:16.322Z,8.02
2022-08-20T17:03:33.583Z,4.75
2022-08-20T17:06:49.390Z,6.88
2022-08-20T17:09:52.193Z,4.60
2022-08-20T17:13:14.801Z,7.30
2022-08-20T17:16:18.459Z,5.07
2022-08-20T17:19:29.470Z,8.77
2022-08-20T17:22:41.522Z,6.47
2022-08-20T17:25:44.522Z,5.38
2022-08-20T17:28:53.870Z,5.05
2022-08-20T17:32:21.840Z,5.20
2022-08-20T17:35:30.119Z,5.10
2022-08-20T17:38:39.892Z,4.95
2022-08-20T17:41:48.058Z,4.45
2022-08-20T17:45:05.845Z,4.32
2022-08-20T17:48:15.374Z,6.15
2022-08-20T17:51:23.568Z,5.45
2022-08-20T17:54:34.389Z,5.18
2022-08-20T17:57:40.124Z,4.53
2022-08-20T18:00:43.546Z,6.13
2022-08-20T18:03:45.205Z,5.90
2022-08-20T18:06:54.884Z,4.75
2022-08-20T18:10:10.490Z,3.78
2022-08-20T18:13:18.407Z,5.47
2022-08-20T18:16:31.251Z,5.20
2022-08-20T18:19:48.244Z,5.43
2022-08-20T18:22:57.364Z,6.72
2022-08-20T18:26:21.323Z,6.75
2022-08-20T18:29:28.254Z,5.25
2022-08-20T18:32:36.801Z,5.35
2022-08-20T18:35:45.790Z,5.68
2022-08-20T18:38:57.053Z,5.78
2022-08-20T18:41:58.711Z,4.78
2022-08-20T18:45:00.818Z,5.07
2022-08-20T18:48:03.894Z,4.68
2022-08-20T18:51:19.059Z,6.20
2022-08-20T18:54:30.687Z,5.35
2022-08-20T18:57:41.737Z,4.15
2022-08-20T19:00:48.822Z,4.80
2022-08-20T19:04:04.845Z,4.80
2022-08-20T19:07:17.502Z,7.57
2022-08-20T19:10:46.736Z,5.00
2022-08-20T19:13:53.703Z,5.28
2022-08-20T19:17:10.587Z,4.50
2022-08-20T19:20:25.455Z,3.97
2022-08-20T19:23:29.835Z,5.22
2022-08-20T19:26:39.393Z,5.05
2022-08-20T19:29:48.685Z,6.07
2022-08-20T19:32:52.917Z,4.00
2022-08-20T19:35:54.615Z,6.07
2022-08-20T19:39:00.804Z,5.13
2022-08-20T19:42:14.481Z,6.90
2022-08-20T19:45:26.003Z,6.55
2022-08-20T19:48:41.448Z,5.45
2022-08-20T19:52:08.987Z,6.75
2022-08-20T19:55:29.807Z,6.45
2022-08-20T19:58:33.245Z,7.03
2022-08-20T20:01:36.289Z,7.07
2022-08-20T20:04:41.133Z,5.40
2022-08-20T20:07:58.526Z,8.25
2022-08-20T20:11:01.053Z,5.38
2022-08-20T20:14:12.327Z,4.35
2022-08-20T20:17:23.111Z,4.85
2022-08-20T20:20:57.142Z,4.80
2022-08-20T20:24:01.088Z,3.88
2022-08-20T20:27:02.818Z,6.97
2022-08-20T20:30:12.513Z,5.90
2022-08-20T20:33:35.560Z,5.72
2022-08-20T20:36:43.928Z,6.35
2022-08-20T20:39:45.873Z,6.80
2022-08-20T20:43:07.831Z,5.90
2022-08-20T20:46:25.074Z,6.57
2022-08-20T20:49:29.387Z,4.90
2022-08-20T20:52:37.604Z,6.10
2022-08-20T20:55:39.863Z,5.30
2022-08-20T20:58:41.497Z,4.45
2022-08-20T21:01:55.384Z,5.05
2022-08-20T21:04:58.368Z,6.13
2022-08-20T21:08:02.437Z,6.50
2022-08-20T21:11:04.140Z,4.72
2022-08-20T21:14:05.844Z,3.95
2022-08-20T21:17:11.704Z,5.63
2022-08-20T21:20:13.574Z,5.80
2022-08-20T21:23:15.232Z,5.60
2022-08-20T21:26:16.832Z,3.72
2022-08-20T21:29:30.456Z,5.57
2022-08-20T21:32:33.870Z,4.70
2022-08-20T21:35:35.557Z,6.20
2022-08-20T21:38:37.215Z,4.15
2022-08-20T21:41:42.653Z,5.70
2022-08-20T21:44:49.497Z,5.10
2022-08-20T21:47:51.489Z,5.32
2022-08-20T21:50:53.087Z,4.82
2022-08-20T21:53:55.159Z,5.88
2022-08-20T21:57:18.371Z,4.38
2022-08-20T22:00:45.485Z,6.10
2022-08-20T22:03:49.507Z,8.02
2022-08-20T22:06:52.158Z,6.35
2022-08-20T22:09:53.843Z,6.50
2022-08-20T22:12:55.768Z,7.35
2022-08-20T22:15:59.431Z,6.45
2022-08-20T22:19:01.202Z,5.75
2022-08-20T22:22:03.058Z,6.50
2022-08-20T22:25:05.183Z,5.07
2022-08-20T22:28:11.945Z,4.20
2022-08-20T22:31:15.802Z,5.75
2022-08-20T22:34:19.743Z,6.30
2022-08-20T22:37:21.837Z,6.97
2022-08-20T22:40:24.247Z,5.05
2022-08-20T22:43:25.846Z,5.88
2022-08-20T22:46:32.258Z,4.20
2022-08-20T22:52:39.222Z,6.10
2022-08-20T22:55:41.335Z,5.13
2022-08-20T22:58:43.386Z,8.45
2022-08-20T23:01:48.134Z,5.97
2022-08-20T23:04:50.111Z,4.75
2022-08-20T23:07:56.662Z,5.50
2022-08-20T23:10:58.441Z,5.68
2022-08-20T23:14:00.132Z,8.25
2022-08-20T23:17:10.122Z,6.20
2022-08-20T23:20:17.151Z,6.43
2022-08-20T23:23:19.024Z,4.85
2022-08-20T23:26:22.658Z,6.30
2022-08-20T23:29:27.146Z,7.43
2022-08-20T23:32:28.866Z,4.55
2022-08-20T23:35:33.036Z,5.35
2022-08-20T23:38:35.609Z,7.50
2022-08-20T23:41:37.243Z,5.95
2022-08-20T23:44:49.616Z,7.05
2022-08-20T23:47:52.087Z,4.63
2022-08-20T23:50:53.700Z,5.30
2022-08-20T23:53:55.707Z,5.03
2022-08-20T23:56:58.904Z,5.65
